createdAt,value
2023-10-23T00:01:16.772Z,99562.34
2023-10-23T00:03:44.056Z,99563.19
2023-10-23T00:06:11.512Z,99566.72
2023-10-23T00:08:38.843Z,99560.50
2023-10-23T00:11:08.761Z,99564.84
2023-10-23T00:13:36.726Z,99555.09
2023-10-23T00:16:07.611Z,99559.88
2023-10-23T00:18:34.652Z,99565.72
2023-10-23T00:21:03.851Z,99549.94
2023-10-23T00:23:31.337Z,99552.53
2023-10-23T00:25:58.502Z,99550.28
2023-10-23T00:28:27.349Z,99561.50
2023-10-23T00:30:57.433Z,99559.06
2023-10-23T00:33:26.227Z,99552.84
2023-10-23T00:35:55.522Z,99565.28
2023-10-23T00:38:24.055Z,99565.06
2023-10-23T00:40:51.132Z,99572.56
2023-10-23T00:43:21.063Z,99574.44
2023-10-23T00:45:56.565Z,99581.13
2023-10-23T00:48:26.846Z,99579.28
2023-10-23T00:50:58.546Z,99581.81
2023-10-23T00:53:33.302Z,99583.28
2023-10-23T00:56:04.997Z,99586.00
2023-10-23T00:58:33.765Z,99580.28
2023-10-23T01:01:05.376Z,99576.75
2023-10-23T01:03:33.927Z,99569.97
2023-10-23T01:06:01.921Z,99567.91
2023-10-23T01:08:29.630Z,99572.47
2023-10-23T01:10:56.944Z,99571.25
2023-10-23T01:13:27.086Z,99577.06
2023-10-23T01:15:55.249Z,99572.06
2023-10-23T01:18:22.821Z,99567.53
2023-10-23T01:20:52.008Z,99565.84
2023-10-23T01:23:24.686Z,99564.22
2023-10-23T01:25:55.279Z,99574.56
2023-10-23T01:28:22.823Z,99569.78
2023-10-23T01:30:49.798Z,99572.09
2023-10-23T01:33:17.445Z,99569.56
2023-10-23T01:35:44.445Z,99564.16
2023-10-23T01:38:14.720Z,99555.41
2023-10-23T01:40:41.857Z,99560.16
2023-10-23T01:43:10.291Z,99556.63
2023-10-23T01:45:37.756Z,99560.16
2023-10-23T01:48:06.478Z,99572.81
2023-10-23T01:50:34.387Z,99575.31
2023-10-23T01:53:02.988Z,99571.56
2023-10-23T01:55:32.016Z,99575.72
2023-10-23T01:57:58.985Z,99572.38
2023-10-23T02:00:44.077Z,99571.34
2023-10-23T02:03:11.221Z,99569.69
2023-10-23T02:05:38.690Z,99575.13
2023-10-23T02:08:05.765Z,99562.44
2023-10-23T02:10:33.915Z,99569.13
2023-10-23T02:13:01.663Z,99561.66
2023-10-23T02:15:28.848Z,99567.06
2023-10-23T02:17:57.586Z,99567.50
2023-10-23T02:20:24.705Z,99571.66
2023-10-23T02:22:52.761Z,99565.25
2023-10-23T02:25:20.043Z,99567.53
2023-10-23T02:27:47.077Z,99564.19
2023-10-23T02:30:14.434Z,99565.03
2023-10-23T02:32:41.907Z,99567.16
2023-10-23T02:35:10.327Z,99566.53
2023-10-23T02:37:37.597Z,99572.56
2023-10-23T02:40:06.877Z,99565.31
2023-10-23T02:42:35.123Z,99557.25
2023-10-23T02:45:03.160Z,99568.44
2023-10-23T02:47:33.070Z,99564.91
2023-10-23T02:50:00.623Z,99568.03
2023-10-23T02:52:28.863Z,99573.44
2023-10-23T02:54:56.128Z,99570.56
2023-10-23T02:57:23.450Z,99574.28
2023-10-23T02:59:50.532Z,99576.34
2023-10-23T03:02:19.518Z,99574.72
2023-10-23T03:07:43.358Z,99586.28
2023-10-23T03:10:13.846Z,99585.50
2023-10-23T03:12:41.672Z,99586.28
2023-10-23T03:15:09.624Z,99591.69
2023-10-23T03:17:36.570Z,99589.19
2023-10-23T03:20:06.212Z,99591.09
2023-10-23T03:22:33.614Z,99587.16
2023-10-23T03:25:02.307Z,99582.56
2023-10-23T03:27:29.613Z,99584.03
2023-10-23T03:29:56.535Z,99589.63
2023-10-23T03:32:24.966Z,99590.66
2023-10-23T03:34:54.114Z,99593.34
2023-10-23T03:37:29.576Z,99586.91
2023-10-23T03:39:57.590Z,99589.41
2023-10-23T03:42:28.314Z,99584.63
2023-10-23T03:44:58.608Z,99582.34
2023-10-23T03:47:26.701Z,99590.84
2023-10-23T03:49:54.263Z,99591.06
2023-10-23T03:52:21.409Z,99589.84
2023-10-23T03:54:50.074Z,99586.72
2023-10-23T03:57:17.112Z,99588.81
2023-10-23T03:59:46.141Z,99582.59
2023-10-23T04:02:15.633Z,99581.75
2023-10-23T04:04:43.675Z,99576.59
2023-10-23T04:07:11.709Z,99571.19
2023-10-23T04:09:39.141Z,99576.97
2023-10-23T04:12:07.644Z,99573.69
2023-10-23T04:14:34.716Z,99568.91
2023-10-23T04:17:04.121Z,99565.78
2023-10-23T04:19:31.464Z,99570.97
2023-10-23T04:21:58.409Z,99571.19
2023-10-23T04:24:25.799Z,99571.16
2023-10-23T04:26:53.090Z,99567.81
2023-10-23T04:29:21.277Z,99571.78
2023-10-23T04:31:48.311Z,99569.47
2023-10-23T04:34:20.612Z,99574.44
2023-10-23T04:36:48.972Z,99569.25
2023-10-23T04:39:17.581Z,99565.28
2023-10-23T04:41:44.606Z,99556.00
2023-10-23T04:44:11.892Z,99559.31
2023-10-23T04:46:39.816Z,99554.56
2023-10-23T04:49:07.107Z,99554.16
2023-10-23T04:51:36.048Z,99554.16
2023-10-23T04:54:03.480Z,99548.56
2023-10-23T04:56:30.915Z,99552.28
2023-10-23T04:58:58.170Z,99549.81
2023-10-23T05:01:27.146Z,99554.34
2023-10-23T05:03:57.385Z,99556.63
2023-10-23T05:06:26.124Z,99558.69
2023-10-23T05:08:55.785Z,99560.13
2023-10-23T05:11:23.627Z,99557.22
2023-10-23T05:13:51.852Z,99553.50
2023-10-23T05:16:19.705Z,99554.72
2023-10-23T05:18:50.376Z,99552.91
2023-10-23T05:21:20.169Z,99554.59
2023-10-23T05:23:47.202Z,99552.31
2023-10-23T05:26:17.829Z,99556.69
2023-10-23T05:28:45.471Z,99551.47
2023-10-23T05:31:13.567Z,99546.75
2023-10-23T05:33:40.832Z,99541.34
2023-10-23T05:36:09.592Z,99547.97
2023-10-23T05:38:39.725Z,99545.88
2023-10-23T05:41:08.873Z,99546.09
2023-10-23T05:43:37.211Z,99549.44
2023-10-23T05:46:05.889Z,99553.53
2023-10-23T05:48:33.439Z,99553.34
2023-10-23T05:51:03.073Z,99560.16
2023-10-23T05:53:34.608Z,99557.44
2023-10-23T05:56:02.372Z,99554.97
2023-10-23T05:58:30.258Z,99561.38
2023-10-23T06:01:07.770Z,99566.34
2023-10-23T06:03:36.639Z,99572.94
2023-10-23T06:06:05.593Z,99577.66
2023-10-23T06:08:33.342Z,99574.75
2023-10-23T06:11:02.330Z,99578.56
2023-10-23T06:13:30.025Z,99587.66
2023-10-23T06:16:01.273Z,99588.09
2023-10-23T06:18:33.344Z,99589.97
2023-10-23T06:21:13.237Z,99586.28
2023-10-23T06:23:42.412Z,99590.66
2023-10-23T06:26:10.557Z,99584.22
2023-10-23T06:28:39.202Z,99573.38
2023-10-23T06:31:09.238Z,99564.50
2023-10-23T06:33:39.361Z,99573.91
2023-10-23T06:36:09.209Z,99585.94
2023-10-23T06:38:37.189Z,99579.63
2023-10-23T06:41:04.879Z,99564.69
2023-10-23T06:43:32.073Z,99576.63
2023-10-23T06:46:02.321Z,99582.09
2023-10-23T06:48:31.441Z,99570.59
2023-10-23T06:51:00.762Z,99558.25
2023-10-23T06:53:28.227Z,99567.28
2023-10-23T06:55:56.473Z,99562.06
2023-10-23T06:58:25.816Z,99558.81
2023-10-23T07:04:02.560Z,99551.25
2023-10-23T07:18:10.342Z,99570.25
2023-10-23T07:20:45.169Z,99569.06
2023-10-23T07:23:12.979Z,99562.63
2023-10-23T07:25:41.558Z,99559.09
2023-10-23T07:28:09.046Z,99545.41
2023-10-23T07:30:38.008Z,99532.41
2023-10-23T07:36:04.470Z,99543.28
2023-10-23T07:38:33.034Z,99534.38
2023-10-23T07:41:05.309Z,99535.66
2023-10-23T07:43:36.339Z,99523.09
2023-10-23T07:46:16.672Z,99521.22
2023-10-23T07:48:46.992Z,99520.41
2023-10-23T07:51:17.760Z,99520.00
2023-10-23T07:53:45.537Z,99510.97
2023-10-23T07:56:15.406Z,99516.88
2023-10-23T07:58:44.175Z,99509.72
2023-10-23T08:01:14.740Z,99505.94
2023-10-23T08:03:42.629Z,99516.19
2023-10-23T08:06:16.921Z,99514.47
2023-10-23T08:08:44.521Z,99512.50
2023-10-23T08:11:19.960Z,99501.25
2023-10-23T08:13:48.152Z,99508.41
2023-10-23T08:16:15.519Z,99503.09
2023-10-23T08:18:44.150Z,99502.81
2023-10-23T08:21:14.380Z,99502.34
2023-10-23T08:23:48.141Z,99501.28
2023-10-23T08:26:15.798Z,99495.47
2023-10-23T08:31:29.554Z,99486.13
2023-10-23T08:34:07.557Z,99484.91
2023-10-23T08:36:37.221Z,99487.47
2023-10-23T08:39:06.480Z,99488.34
2023-10-23T08:41:35.016Z,99495.22
2023-10-23T08:44:04.750Z,99497.28
2023-10-23T08:46:35.196Z,99498.34
2023-10-23T08:49:03.683Z,99489.75
2023-10-23T08:51:31.121Z,99493.84
2023-10-23T08:54:11.703Z,99497.97
2023-10-23T08:56:43.227Z,99502.00
2023-10-23T08:59:12.706Z,99498.22
2023-10-23T09:01:40.364Z,99499.97
2023-10-23T09:04:14.754Z,99510.75
2023-10-23T09:06:42.039Z,99502.97
2023-10-23T09:09:11.451Z,99502.50
2023-10-23T09:11:40.966Z,99496.09
2023-10-23T09:14:08.319Z,99495.28
2023-10-23T09:16:35.840Z,99491.75
2023-10-23T09:19:02.914Z,99479.84
2023-10-23T09:21:31.056Z,99474.53
2023-10-23T09:24:00.427Z,99481.69
2023-10-23T09:26:29.146Z,99464.88
2023-10-23T09:28:57.976Z,99474.41
2023-10-23T09:31:26.148Z,99475.88
2023-10-23T09:33:53.587Z,99469.47
2023-10-23T09:36:20.710Z,99462.53
2023-10-23T09:42:05.090Z,99462.38
2023-10-23T09:48:02.890Z,99457.69
2023-10-23T09:50:36.005Z,99473.88
2023-10-23T09:53:09.022Z,99470.88
2023-10-23T09:55:40.694Z,99471.25
2023-10-23T09:58:17.809Z,99483.69
2023-10-23T10:00:47.106Z,99482.31
2023-10-23T10:03:19.295Z,99485.91
2023-10-23T10:05:57.277Z,99485.34
2023-10-23T10:08:30.166Z,99477.72
2023-10-23T10:10:59.262Z,99470.53
2023-10-23T10:13:30.254Z,99473.38
2023-10-23T10:16:09.407Z,99471.03
2023-10-23T10:18:38.124Z,99468.63
2023-10-23T10:21:12.627Z,99464.09
2023-10-23T10:23:43.153Z,99467.44
2023-10-23T10:26:10.481Z,99458.97
2023-10-23T10:28:40.870Z,99446.13
2023-10-23T10:31:08.478Z,99443.53
2023-10-23T10:34:28.556Z,99443.69
2023-10-23T10:36:45.389Z,99433.72
2023-10-23T10:39:15.487Z,99433.19
2023-10-23T10:41:43.006Z,99426.59
2023-10-23T10:44:11.684Z,99430.41
2023-10-23T10:46:41.192Z,99417.09
2023-10-23T10:49:08.923Z,99419.50
2023-10-23T10:51:36.479Z,99416.56
2023-10-23T10:54:07.107Z,99404.69
2023-10-23T10:56:36.938Z,99389.81
2023-10-23T10:59:07.585Z,99387.25
2023-10-23T11:01:36.859Z,99373.59
2023-10-23T11:04:05.947Z,99370.50
2023-10-23T11:06:34.957Z,99372.63
2023-10-23T11:09:02.023Z,99365.91
2023-10-23T11:14:22.450Z,99362.09
2023-10-23T11:16:52.368Z,99353.25
2023-10-23T11:19:19.524Z,99346.28
2023-10-23T11:21:46.542Z,99340.84
2023-10-23T11:24:13.546Z,99339.88
2023-10-23T11:26:40.984Z,99344.25
2023-10-23T11:29:08.036Z,99336.22
2023-10-23T11:31:35.218Z,99330.19
2023-10-23T11:34:09.258Z,99325.66
2023-10-23T11:36:36.192Z,99322.72
2023-10-23T11:39:09.146Z,99319.75
2023-10-23T11:41:36.550Z,99314.69
2023-10-23T11:44:04.005Z,99314.56
2023-10-23T11:46:31.511Z,99308.16
2023-10-23T11:48:58.968Z,99305.84
2023-10-23T11:51:39.976Z,99286.34
2023-10-23T11:54:07.350Z,99279.34
2023-10-23T11:56:36.472Z,99270.72
2023-10-23T11:59:05.974Z,99268.09
2023-10-23T12:01:33.957Z,99262.56
2023-10-23T12:04:00.998Z,99266.38
2023-10-23T12:06:29.976Z,99264.06
2023-10-23T12:08:58.737Z,99269.25
2023-10-23T12:11:26.157Z,99269.66
2023-10-23T12:13:53.231Z,99264.94
2023-10-23T12:16:20.408Z,99265.91
2023-10-23T12:18:47.567Z,99260.28
2023-10-23T12:21:14.936Z,99257.56
2023-10-23T12:23:43.624Z,99256.94
2023-10-23T12:26:11.144Z,99257.59
2023-10-23T12:28:38.161Z,99260.88
2023-10-23T12:31:22.625Z,99258.75
2023-10-23T12:33:51.937Z,99254.38
2023-10-23T12:36:19.770Z,99244.41
2023-10-23T12:38:48.139Z,99233.38
2023-10-23T12:41:20.435Z,99225.84
2023-10-23T12:43:47.675Z,99225.38
2023-10-23T12:46:15.075Z,99227.34
2023-10-23T12:48:42.041Z,99226.53
2023-10-23T12:51:10.469Z,99223.75
2023-10-23T12:53:38.196Z,99222.63
2023-10-23T12:56:07.701Z,99225.28
2023-10-23T12:58:34.905Z,99224.41
2023-10-23T13:01:02.361Z,99221.28
2023-10-23T13:03:29.639Z,99202.34
2023-10-23T13:05:56.745Z,99195.81
2023-10-23T13:08:23.909Z,99172.41
2023-10-23T13:10:50.997Z,99174.69
2023-10-23T13:13:21.245Z,99160.88
2023-10-23T13:15:48.855Z,99159.31
2023-10-23T13:18:15.846Z,99159.16
2023-10-23T13:21:29.450Z,99147.53
2023-10-23T13:23:31.516Z,99134.91
2023-10-23T13:26:12.807Z,99123.69
2023-10-23T13:28:42.424Z,99127.31
2023-10-23T13:31:09.660Z,99118.50
2023-10-23T13:33:36.923Z,99109.97
2023-10-23T13:36:04.798Z,99112.00
2023-10-23T13:38:31.842Z,99105.56
2023-10-23T13:40:59.478Z,99109.75
2023-10-23T13:43:27.582Z,99113.59
2023-10-23T13:45:57.184Z,99109.63
2023-10-23T13:48:25.190Z,99105.13
2023-10-23T13:50:53.705Z,99097.06
2023-10-23T13:53:23.392Z,99106.38
2023-10-23T13:55:52.256Z,99107.00
2023-10-23T13:58:20.078Z,99113.59
2023-10-23T14:00:47.755Z,99087.28
2023-10-23T14:03:17.094Z,99070.34
2023-10-23T14:05:44.562Z,99053.72
2023-10-23T14:08:14.905Z,99063.97
2023-10-23T14:10:42.403Z,99055.91
2023-10-23T14:13:10.136Z,99039.28
2023-10-23T14:15:39.670Z,99036.72
2023-10-23T14:18:07.181Z,99034.97
2023-10-23T14:20:38.146Z,99030.81
2023-10-23T14:23:05.863Z,99033.75
2023-10-23T14:25:33.196Z,99040.66
2023-10-23T14:28:01.303Z,99036.00
2023-10-23T14:30:28.709Z,99026.50
2023-10-23T14:32:59.270Z,99010.91
2023-10-23T14:35:27.320Z,99006.22
2023-10-23T14:37:56.588Z,99008.50
2023-10-23T14:40:24.503Z,99002.81
2023-10-23T14:42:52.272Z,98991.50
2023-10-23T14:45:21.287Z,98980.94
2023-10-23T14:47:49.560Z,98985.81
2023-10-23T14:50:17.110Z,98984.50
2023-10-23T14:52:45.589Z,98975.78
2023-10-23T14:55:14.693Z,98977.41
2023-10-23T14:57:41.692Z,98980.94
2023-10-23T15:00:12.732Z,98974.72
2023-10-23T15:02:39.630Z,98964.97
2023-10-23T15:05:09.604Z,98965.03
2023-10-23T15:07:37.569Z,98955.19
2023-10-23T15:10:06.852Z,98950.31
2023-10-23T15:12:38.977Z,98929.97
2023-10-23T15:15:09.078Z,98932.16
2023-10-23T15:17:36.551Z,98933.47
2023-10-23T15:20:04.074Z,98935.16
2023-10-23T15:22:32.461Z,98923.16
2023-10-23T15:25:02.714Z,98915.28
2023-10-23T15:27:29.759Z,98919.88
2023-10-23T15:29:58.549Z,98917.66
2023-10-23T15:32:26.697Z,98912.50
2023-10-23T15:34:55.808Z,98905.38
2023-10-23T15:37:23.164Z,98910.75
2023-10-23T15:39:53.624Z,98906.41
2023-10-23T15:42:21.451Z,98904.00
2023-10-23T15:44:49.517Z,98889.06
2023-10-23T15:47:18.248Z,98894.00
2023-10-23T15:49:45.609Z,98886.03
2023-10-23T15:52:14.758Z,98867.47
2023-10-23T15:54:47.380Z,98861.69
2023-10-23T15:57:17.392Z,98841.88
2023-10-23T15:59:44.384Z,98847.84
2023-10-23T16:02:12.147Z,98853.28
2023-10-23T16:04:46.126Z,98857.69
2023-10-23T16:07:13.984Z,98855.22
2023-10-23T16:09:41.517Z,98845.84
2023-10-23T16:12:10.048Z,98855.59
2023-10-23T16:17:11.106Z,98862.47
2023-10-23T16:19:38.335Z,98865.00
2023-10-23T16:22:07.231Z,98863.16
2023-10-23T16:24:35.681Z,98864.81
2023-10-23T16:27:03.052Z,98874.47
2023-10-23T16:29:30.671Z,98866.16
2023-10-23T16:31:59.694Z,98854.97
2023-10-23T16:34:27.365Z,98859.59
2023-10-23T16:36:55.546Z,98868.13
2023-10-23T16:39:23.928Z,98866.78
2023-10-23T16:41:51.177Z,98875.69
2023-10-23T16:44:18.500Z,98868.16
2023-10-23T16:46:45.603Z,98866.63
2023-10-23T16:49:13.752Z,98857.72
2023-10-23T16:51:41.010Z,98856.38
2023-10-23T16:54:09.718Z,98859.66
2023-10-23T16:56:41.590Z,98878.47
2023-10-23T16:59:08.651Z,98882.50
2023-10-23T17:01:35.978Z,98880.94
2023-10-23T17:04:03.936Z,98884.19
2023-10-23T17:06:31.448Z,98887.50
2023-10-23T17:08:59.714Z,98896.22
2023-10-23T17:11:29.381Z,98894.31
2023-10-23T17:13:58.294Z,98892.41
2023-10-23T17:16:25.724Z,98907.00
2023-10-23T17:18:52.867Z,98898.09
2023-10-23T17:21:21.262Z,98892.59
2023-10-23T17:23:49.207Z,98883.91
2023-10-23T17:26:19.041Z,98888.16
2023-10-23T17:28:47.858Z,98904.19
2023-10-23T17:31:25.798Z,98899.72
2023-10-23T17:33:55.973Z,98896.63
2023-10-23T17:36:23.504Z,98875.88
2023-10-23T17:38:51.042Z,98880.28
2023-10-23T17:41:18.245Z,98871.34
2023-10-23T17:43:47.662Z,98867.22
2023-10-23T17:46:16.574Z,98876.69
2023-10-23T17:48:47.234Z,98878.41
2023-10-23T17:51:16.729Z,98883.06
2023-10-23T17:54:04.244Z,98900.72
2023-10-23T17:56:34.571Z,98912.41
2023-10-23T17:59:04.505Z,98916.25
2023-10-23T18:01:33.414Z,98914.13
2023-10-23T18:04:00.391Z,98903.59
2023-10-23T18:06:27.328Z,98893.84
2023-10-23T18:08:54.536Z,98902.00
2023-10-23T18:11:24.765Z,98902.78
2023-10-23T18:13:51.672Z,98914.75
2023-10-23T18:16:21.470Z,98922.38
2023-10-23T18:18:49.823Z,98914.47
2023-10-23T18:21:17.014Z,98915.56
2023-10-23T18:23:46.819Z,98929.75
2023-10-23T18:26:15.525Z,98922.72
2023-10-23T18:28:44.283Z,98927.13
2023-10-23T18:31:19.335Z,98930.88
2023-10-23T18:33:46.653Z,98942.31
2023-10-23T18:36:17.717Z,98938.78
2023-10-23T18:38:45.831Z,98941.25
2023-10-23T18:41:17.271Z,98948.06
2023-10-23T18:43:45.611Z,98951.59
2023-10-23T18:46:12.748Z,98953.50
2023-10-23T18:48:41.767Z,98951.09
2023-10-23T18:51:13.242Z,98944.59
2023-10-23T18:53:46.250Z,98940.19
2023-10-23T18:56:15.603Z,98939.59
2023-10-23T18:58:46.049Z,98951.56
2023-10-23T19:01:15.878Z,98949.84
2023-10-23T19:03:43.940Z,98958.31
2023-10-23T19:06:11.410Z,98948.66
2023-10-23T19:08:39.897Z,98960.03
2023-10-23T19:11:11.935Z,98967.97
2023-10-23T19:13:39.689Z,98974.84
2023-10-23T19:16:07.139Z,98978.13
2023-10-23T19:18:36.945Z,98985.47
2023-10-23T19:21:10.841Z,98992.28
2023-10-23T19:23:43.965Z,98981.44
2023-10-23T19:26:13.660Z,98970.06
2023-10-23T19:28:41.928Z,98962.72
2023-10-23T19:31:16.759Z,98948.06
2023-10-23T19:33:51.343Z,98935.03
2023-10-23T19:36:19.814Z,98946.75
2023-10-23T19:38:48.496Z,98961.41
2023-10-23T19:41:31.275Z,98976.00
2023-10-23T19:43:59.474Z,98984.69
2023-10-23T19:46:27.601Z,99003.47
2023-10-23T19:48:56.789Z,99008.88
2023-10-23T19:51:25.316Z,99011.34
2023-10-23T19:53:54.312Z,98982.22
2023-10-23T19:56:29.005Z,98965.50
2023-10-23T19:58:58.558Z,98972.28
2023-10-23T20:01:26.396Z,98989.69
2023-10-23T20:03:54.131Z,98993.19
2023-10-23T20:06:21.386Z,98994.00
2023-10-23T20:08:48.482Z,98997.28
2023-10-23T20:11:15.487Z,98998.84
2023-10-23T20:13:44.854Z,98990.94
2023-10-23T20:16:12.140Z,98983.69
2023-10-23T20:18:41.665Z,98975.22
2023-10-23T20:21:09.669Z,98968.81
2023-10-23T20:23:37.171Z,98986.31
2023-10-23T20:26:12.449Z,98987.75
2023-10-23T20:28:40.546Z,98973.72
2023-10-23T20:31:15.455Z,98972.44
2023-10-23T20:33:43.334Z,98970.22
2023-10-23T20:36:13.172Z,98958.06
2023-10-23T20:38:40.120Z,98967.59
2023-10-23T20:41:14.508Z,98946.00
2023-10-23T20:43:42.443Z,98922.44
2023-10-23T20:46:09.670Z,98914.38
2023-10-23T20:48:38.666Z,98910.09
2023-10-23T20:51:07.145Z,98912.78
2023-10-23T20:53:34.475Z,98915.91
2023-10-23T20:56:02.742Z,98932.25
2023-10-23T20:58:30.041Z,98935.16
2023-10-23T21:01:04.839Z,98948.84
2023-10-23T21:03:32.088Z,98948.78
2023-10-23T21:06:02.018Z,98961.44
2023-10-23T21:08:29.703Z,98953.16
2023-10-23T21:10:57.048Z,98944.66
2023-10-23T21:13:24.802Z,98957.81
2023-10-23T21:15:52.408Z,98966.53
2023-10-23T21:18:19.579Z,98981.31
2023-10-23T21:20:46.801Z,98983.84
2023-10-23T21:23:15.591Z,98991.22
2023-10-23T21:25:43.030Z,98996.25
2023-10-23T21:28:11.530Z,98999.59
2023-10-23T21:30:39.955Z,98997.38
2023-10-23T21:33:07.154Z,99008.56
2023-10-23T21:35:34.421Z,99008.88
2023-10-23T21:38:01.351Z,98991.28
2023-10-23T21:40:30.938Z,98951.56
2023-10-23T21:42:58.773Z,98924.38
2023-10-23T21:45:28.355Z,98890.03
2023-10-23T21:47:57.836Z,98876.31
2023-10-23T21:50:27.186Z,98942.53
2023-10-23T21:52:59.905Z,98926.47
2023-10-23T21:55:30.686Z,98913.31
2023-10-23T21:58:02.311Z,98922.16
2023-10-23T22:00:30.253Z,98925.44
2023-10-23T22:03:03.805Z,98918.38
2023-10-23T22:05:32.277Z,98930.69
2023-10-23T22:07:59.908Z,98910.00
2023-10-23T22:10:28.338Z,98903.69
2023-10-23T22:12:58.122Z,98881.09
2023-10-23T22:15:26.596Z,98875.09
2023-10-23T22:17:53.900Z,98868.75
2023-10-23T22:20:22.285Z,98877.47
2023-10-23T22:22:49.307Z,98884.72
2023-10-23T22:25:16.410Z,98876.50
2023-10-23T22:27:43.617Z,98883.81
2023-10-23T22:30:12.947Z,98894.91
2023-10-23T22:32:41.418Z,98892.25
2023-10-23T22:35:11.196Z,98875.09
2023-10-23T22:38:00.638Z,98856.78
2023-10-23T22:40:26.763Z,98865.63
2023-10-23T22:42:53.852Z,98862.78
2023-10-23T22:45:23.950Z,98858.03
2023-10-23T22:47:52.019Z,98848.38
2023-10-23T22:50:20.864Z,98834.28
2023-10-23T22:52:48.564Z,98867.88
2023-10-23T22:55:16.877Z,98832.88
2023-10-23T22:57:47.403Z,98865.72
2023-10-23T23:00:17.110Z,98871.91
2023-10-23T23:02:46.898Z,98868.00
2023-10-23T23:05:15.356Z,98864.81
2023-10-23T23:07:49.638Z,98822.25
2023-10-23T23:10:18.186Z,98813.78
2023-10-23T23:12:45.759Z,98824.13
2023-10-23T23:15:15.883Z,98819.44
2023-10-23T23:17:52.578Z,98826.53
2023-10-23T23:20:25.861Z,98845.91
2023-10-23T23:22:54.403Z,98835.13
2023-10-23T23:25:30.664Z,98820.94
2023-10-23T23:27:57.701Z,98818.53
2023-10-23T23:30:26.489Z,98842.81
2023-10-23T23:32:54.797Z,98848.09
2023-10-23T23:35:22.123Z,98863.59
2023-10-23T23:37:49.371Z,98876.97
2023-10-23T23:40:16.856Z,98882.63
2023-10-23T23:42:43.893Z,98886.72
2023-10-23T23:45:11.126Z,98884.94
2023-10-23T23:47:38.166Z,98884.22
2023-10-23T23:50:08.704Z,98875.34
2023-10-23T23:52:38.073Z,98866.56
2023-10-23T23:55:06.220Z,98858.69
2023-10-23T23:57:33.669Z,98849.03
